MET'MAP v2.0
soon released !

Expected late october,
this new version will be
more efficient, smarter,
and hosted on a brand new
server x3 powerfull...
...and still free !


Not compatible ?
Try the mobile version !

LOG IN : | Subscribe | Disclaimer | Who is Orbifly ? |
ICAO code :

TAF - ENZV Sola - 29 May 2020 08:02 UTC - Data Source NOAA   


- Airport Elevation : 29 ft
- IATA code : SVG
- No reported NOTAMs.


ENZV - Sola

Latest METAR recorded : 2015/08/11 07:50 ENZV 110750Z 21013KT 9999 SCT020 BKN025 16/13 Q1014 NOSIG
TAF ENZV
Valid from the 29 at 06:00 until the 30 at 06:00 UTC


2906/3006 VRB04KT CAVOK
BECMG 2909/2912 32010KT
BECMG 2918/2920 VRB04KT

Source NOAA


MET'MAP, your aeronautical weather chart ! - Copyright ORBIFLY December 2007

Programming & Development : Alexandra Zaïnal
Co-Developer : Marc-Olivier Méhu
Technical & hardware support : Manuel Goepfert
Concept & Financing : Baudouin d'Aumeries